sensor_id;sensor_type;location;lat;lon;timestamp;P1;durP1;ratioP1;P2;durP2;ratioP2
52542;SDS011;38449;52.696;6.186;2023-02-01T00:01:55;27.55;;;5.70;;
52542;SDS011;38449;52.696;6.186;2023-02-01T00:04:21;35.92;;;7.15;;
52542;SDS011;38449;52.696;6.186;2023-02-01T00:06:47;25.98;;;5.30;;
52542;SDS011;38449;52.696;6.186;2023-02-01T00:09:13;22.73;;;4.88;;
52542;SDS011;38449;52.696;6.186;2023-02-01T00:11:39;30.20;;;7.63;;
52542;SDS011;38449;52.696;6.186;2023-02-01T00:14:04;37.55;;;9.23;;
52542;SDS011;38449;52.696;6.186;2023-02-01T00:16:31;38.97;;;9.40;;
52542;SDS011;38449;52.696;6.186;2023-02-01T00:19:04;33.65;;;7.20;;
52542;SDS011;38449;52.696;6.186;2023-02-01T00:21:36;18.33;;;5.07;;
52542;SDS011;38449;52.696;6.186;2023-02-01T00:24:02;26.33;;;5.60;;
52542;SDS011;38449;52.696;6.186;2023-02-01T00:28:58;21.45;;;5.22;;
52542;SDS011;38449;52.696;6.186;2023-02-01T00:31:24;18.80;;;4.97;;
52542;SDS011;38449;52.696;6.186;2023-02-01T00:33:50;25.02;;;5.07;;
52542;SDS011;38449;52.696;6.186;2023-02-01T00:36:16;26.35;;;4.82;;
52542;SDS011;38449;52.696;6.186;2023-02-01T00:38:42;22.67;;;5.57;;
52542;SDS011;38449;52.696;6.186;2023-02-01T00:43:41;25.63;;;5.57;;
52542;SDS011;38449;52.696;6.186;2023-02-01T00:46:08;30.13;;;5.88;;
52542;SDS011;38449;52.696;6.186;2023-02-01T00:48:33;36.53;;;7.05;;
52542;SDS011;38449;52.696;6.186;2023-02-01T00:51:03;29.60;;;5.95;;
52542;SDS011;38449;52.696;6.186;2023-02-01T00:53:37;30.00;;;6.05;;
52542;SDS011;38449;52.696;6.186;2023-02-01T00:56:02;30.77;;;6.10;;
52542;SDS011;38449;52.696;6.186;2023-02-01T00:58:30;22.02;;;5.50;;
52542;SDS011;38449;52.696;6.186;2023-02-01T01:01:03;37.42;;;7.32;;
52542;SDS011;38449;52.696;6.186;2023-02-01T01:03:29;34.40;;;7.28;;
52542;SDS011;38449;52.696;6.186;2023-02-01T01:05:58;30.10;;;6.95;;
52542;SDS011;38449;52.696;6.186;2023-02-01T01:08:25;30.38;;;6.68;;
52542;SDS011;38449;52.696;6.186;2023-02-01T01:10:51;28.73;;;6.20;;
52542;SDS011;38449;52.696;6.186;2023-02-01T01:13:16;30.40;;;6.28;;
52542;SDS011;38449;52.696;6.186;2023-02-01T01:15:42;23.00;;;5.72;;
52542;SDS011;38449;52.696;6.186;2023-02-01T01:18:08;29.40;;;5.65;;
52542;SDS011;38449;52.696;6.186;2023-02-01T01:20:34;30.50;;;6.40;;
52542;SDS011;38449;52.696;6.186;2023-02-01T01:23:01;30.90;;;6.63;;
52542;SDS011;38449;52.696;6.186;2023-02-01T01:25:27;26.48;;;7.32;;
52542;SDS011;38449;52.696;6.186;2023-02-01T01:27:53;26.95;;;8.02;;
52542;SDS011;38449;52.696;6.186;2023-02-01T01:30:19;33.88;;;8.35;;
52542;SDS011;38449;52.696;6.186;2023-02-01T01:32:45;31.67;;;8.82;;
52542;SDS011;38449;52.696;6.186;2023-02-01T01:35:10;28.88;;;7.13;;
52542;SDS011;38449;52.696;6.186;2023-02-01T01:37:36;24.08;;;5.35;;
52542;SDS011;38449;52.696;6.186;2023-02-01T01:40:03;26.05;;;5.30;;
52542;SDS011;38449;52.696;6.186;2023-02-01T01:42:29;22.65;;;4.82;;
52542;SDS011;38449;52.696;6.186;2023-02-01T01:44:59;20.88;;;5.22;;
52542;SDS011;38449;52.696;6.186;2023-02-01T01:47:47;23.15;;;5.63;;
52542;SDS011;38449;52.696;6.186;2023-02-01T01:50:16;25.85;;;6.10;;
52542;SDS011;38449;52.696;6.186;2023-02-01T01:52:46;33.50;;;8.35;;
52542;SDS011;38449;52.696;6.186;2023-02-01T01:55:14;29.65;;;7.53;;
52542;SDS011;38449;52.696;6.186;2023-02-01T01:57:44;30.13;;;7.15;;
52542;SDS011;38449;52.696;6.186;2023-02-01T02:00:16;39.13;;;8.30;;
52542;SDS011;38449;52.696;6.186;2023-02-01T02:02:46;47.53;;;8.15;;
52542;SDS011;38449;52.696;6.186;2023-02-01T02:05:13;46.88;;;7.90;;
52542;SDS011;38449;52.696;6.186;2023-02-01T02:07:42;29.52;;;6.15;;
52542;SDS011;38449;52.696;6.186;2023-02-01T02:10:11;33.15;;;7.30;;
52542;SDS011;38449;52.696;6.186;2023-02-01T02:12:39;32.80;;;6.45;;
52542;SDS011;38449;52.696;6.186;2023-02-01T02:15:10;22.10;;;5.43;;
52542;SDS011;38449;52.696;6.186;2023-02-01T02:17:41;22.85;;;5.47;;
52542;SDS011;38449;52.696;6.186;2023-02-01T02:26:09;24.58;;;5.78;;
52542;SDS011;38449;52.696;6.186;2023-02-01T02:31:54;23.67;;;6.10;;
52542;SDS011;38449;52.696;6.186;2023-02-01T02:40:13;26.07;;;6.13;;
52542;SDS011;38449;52.696;6.186;2023-02-01T02:42:56;29.48;;;5.80;;
52542;SDS011;38449;52.696;6.186;2023-02-01T02:46:38;23.75;;;5.53;;
52542;SDS011;38449;52.696;6.186;2023-02-01T02:49:42;34.17;;;7.80;;
52542;SDS011;38449;52.696;6.186;2023-02-01T02:52:37;29.95;;;6.95;;
52542;SDS011;38449;52.696;6.186;2023-02-01T02:57:57;26.55;;;6.07;;
52542;SDS011;38449;52.696;6.186;2023-02-01T03:00:42;25.85;;;5.80;;
52542;SDS011;38449;52.696;6.186;2023-02-01T03:03:27;27.27;;;5.78;;
52542;SDS011;38449;52.696;6.186;2023-02-01T03:06:13;27.50;;;6.45;;
52542;SDS011;38449;52.696;6.186;2023-02-01T03:08:42;37.78;;;6.63;;
52542;SDS011;38449;52.696;6.186;2023-02-01T03:11:11;38.67;;;7.63;;
52542;SDS011;38449;52.696;6.186;2023-02-01T03:13:46;45.15;;;10.00;;
52542;SDS011;38449;52.696;6.186;2023-02-01T03:16:30;28.33;;;8.05;;
52542;SDS011;38449;52.696;6.186;2023-02-01T03:19:03;35.92;;;7.32;;
52542;SDS011;38449;52.696;6.186;2023-02-01T03:21:59;24.15;;;6.65;;
52542;SDS011;38449;52.696;6.186;2023-02-01T03:24:43;30.58;;;6.57;;
52542;SDS011;38449;52.696;6.186;2023-02-01T03:27:55;28.38;;;6.75;;
52542;SDS011;38449;52.696;6.186;2023-02-01T03:30:21;28.23;;;5.70;;
52542;SDS011;38449;52.696;6.186;2023-02-01T03:32:47;24.00;;;5.65;;
52542;SDS011;38449;52.696;6.186;2023-02-01T03:35:40;28.08;;;6.65;;
52542;SDS011;38449;52.696;6.186;2023-02-01T03:40:58;27.40;;;6.72;;
52542;SDS011;38449;52.696;6.186;2023-02-01T03:43:33;25.90;;;5.75;;
52542;SDS011;38449;52.696;6.186;2023-02-01T03:46:11;25.00;;;5.43;;
52542;SDS011;38449;52.696;6.186;2023-02-01T03:48:40;23.30;;;4.95;;
52542;SDS011;38449;52.696;6.186;2023-02-01T03:51:06;28.10;;;5.20;;
52542;SDS011;38449;52.696;6.186;2023-02-01T03:53:33;22.60;;;5.68;;
52542;SDS011;38449;52.696;6.186;2023-02-01T03:56:01;25.27;;;6.63;;
52542;SDS011;38449;52.696;6.186;2023-02-01T03:58:27;21.98;;;5.30;;
52542;SDS011;38449;52.696;6.186;2023-02-01T04:00:54;17.23;;;4.95;;
52542;SDS011;38449;52.696;6.186;2023-02-01T04:03:21;21.25;;;5.55;;
52542;SDS011;38449;52.696;6.186;2023-02-01T04:05:48;18.42;;;4.43;;
52542;SDS011;38449;52.696;6.186;2023-02-01T04:08:15;23.58;;;5.50;;
52542;SDS011;38449;52.696;6.186;2023-02-01T04:10:40;23.83;;;5.22;;
52542;SDS011;38449;52.696;6.186;2023-02-01T04:13:06;19.60;;;4.53;;
52542;SDS011;38449;52.696;6.186;2023-02-01T04:15:32;23.63;;;5.55;;
52542;SDS011;38449;52.696;6.186;2023-02-01T04:18:01;27.73;;;5.97;;
52542;SDS011;38449;52.696;6.186;2023-02-01T04:20:27;28.85;;;6.18;;
52542;SDS011;38449;52.696;6.186;2023-02-01T04:22:52;22.85;;;5.35;;
52542;SDS011;38449;52.696;6.186;2023-02-01T04:25:18;23.85;;;5.18;;
52542;SDS011;38449;52.696;6.186;2023-02-01T04:27:44;20.95;;;4.75;;
52542;SDS011;38449;52.696;6.186;2023-02-01T04:30:09;22.50;;;5.25;;
52542;SDS011;38449;52.696;6.186;2023-02-01T04:32:36;25.08;;;5.00;;
52542;SDS011;38449;52.696;6.186;2023-02-01T04:35:03;18.40;;;5.78;;
52542;SDS011;38449;52.696;6.186;2023-02-01T04:37:29;24.05;;;5.63;;
52542;SDS011;38449;52.696;6.186;2023-02-01T04:39:54;23.40;;;4.82;;
52542;SDS011;38449;52.696;6.186;2023-02-01T04:42:20;24.35;;;5.35;;
52542;SDS011;38449;52.696;6.186;2023-02-01T04:44:46;20.17;;;5.07;;
52542;SDS011;38449;52.696;6.186;2023-02-01T04:47:12;25.38;;;5.95;;
52542;SDS011;38449;52.696;6.186;2023-02-01T04:49:37;22.00;;;5.10;;
52542;SDS011;38449;52.696;6.186;2023-02-01T04:52:03;21.23;;;4.93;;
52542;SDS011;38449;52.696;6.186;2023-02-01T04:54:29;23.42;;;5.15;;
52542;SDS011;38449;52.696;6.186;2023-02-01T04:56:54;23.65;;;4.80;;
52542;SDS011;38449;52.696;6.186;2023-02-01T04:59:20;19.95;;;4.95;;
52542;SDS011;38449;52.696;6.186;2023-02-01T05:01:45;19.48;;;4.97;;
52542;SDS011;38449;52.696;6.186;2023-02-01T05:04:11;20.40;;;4.80;;
52542;SDS011;38449;52.696;6.186;2023-02-01T05:06:36;18.75;;;4.55;;
52542;SDS011;38449;52.696;6.186;2023-02-01T05:09:02;20.85;;;4.65;;
52542;SDS011;38449;52.696;6.186;2023-02-01T05:11:28;19.77;;;4.80;;
52542;SDS011;38449;52.696;6.186;2023-02-01T05:14:12;21.02;;;5.13;;
52542;SDS011;38449;52.696;6.186;2023-02-01T05:16:38;22.50;;;4.35;;
52542;SDS011;38449;52.696;6.186;2023-02-01T05:19:03;23.08;;;5.07;;
52542;SDS011;38449;52.696;6.186;2023-02-01T05:21:29;21.90;;;4.28;;
52542;SDS011;38449;52.696;6.186;2023-02-01T05:23:54;17.55;;;4.70;;
52542;SDS011;38449;52.696;6.186;2023-02-01T05:26:44;19.65;;;4.38;;
52542;SDS011;38449;52.696;6.186;2023-02-01T05:29:10;18.73;;;4.97;;
52542;SDS011;38449;52.696;6.186;2023-02-01T05:31:36;21.67;;;4.30;;
52542;SDS011;38449;52.696;6.186;2023-02-01T05:34:03;15.88;;;4.28;;
52542;SDS011;38449;52.696;6.186;2023-02-01T05:36:29;14.32;;;4.05;;
52542;SDS011;38449;52.696;6.186;2023-02-01T05:38:54;17.77;;;4.13;;
52542;SDS011;38449;52.696;6.186;2023-02-01T05:41:20;15.65;;;4.13;;
52542;SDS011;38449;52.696;6.186;2023-02-01T05:43:45;19.75;;;5.32;;
52542;SDS011;38449;52.696;6.186;2023-02-01T05:46:11;19.15;;;4.70;;
52542;SDS011;38449;52.696;6.186;2023-02-01T05:48:41;16.48;;;4.60;;
52542;SDS011;38449;52.696;6.186;2023-02-01T05:51:09;18.60;;;3.95;;
52542;SDS011;38449;52.696;6.186;2023-02-01T05:53:35;18.77;;;4.82;;
52542;SDS011;38449;52.696;6.186;2023-02-01T05:56:01;17.55;;;4.90;;
52542;SDS011;38449;52.696;6.186;2023-02-01T05:58:27;19.23;;;4.38;;
52542;SDS011;38449;52.696;6.186;2023-02-01T06:00:53;21.45;;;4.88;;
52542;SDS011;38449;52.696;6.186;2023-02-01T06:03:19;14.95;;;3.80;;
52542;SDS011;38449;52.696;6.186;2023-02-01T06:05:45;19.40;;;4.53;;
52542;SDS011;38449;52.696;6.186;2023-02-01T06:08:11;22.65;;;4.80;;
52542;SDS011;38449;52.696;6.186;2023-02-01T06:10:37;17.27;;;3.90;;
52542;SDS011;38449;52.696;6.186;2023-02-01T06:13:03;20.98;;;4.35;;
52542;SDS011;38449;52.696;6.186;2023-02-01T06:15:29;17.13;;;4.60;;
52542;SDS011;38449;52.696;6.186;2023-02-01T06:17:55;20.65;;;4.72;;
52542;SDS011;38449;52.696;6.186;2023-02-01T06:20:21;20.58;;;4.85;;
52542;SDS011;38449;52.696;6.186;2023-02-01T06:22:46;19.98;;;4.22;;
52542;SDS011;38449;52.696;6.186;2023-02-01T06:25:12;20.10;;;4.13;;
52542;SDS011;38449;52.696;6.186;2023-02-01T06:27:38;21.90;;;4.32;;
52542;SDS011;38449;52.696;6.186;2023-02-01T06:30:04;18.17;;;4.15;;
52542;SDS011;38449;52.696;6.186;2023-02-01T06:32:31;19.05;;;4.40;;
52542;SDS011;38449;52.696;6.186;2023-02-01T06:34:57;17.30;;;4.30;;
52542;SDS011;38449;52.696;6.186;2023-02-01T06:37:23;17.23;;;5.32;;
52542;SDS011;38449;52.696;6.186;2023-02-01T06:39:50;19.23;;;4.25;;
52542;SDS011;38449;52.696;6.186;2023-02-01T06:42:16;15.57;;;4.32;;
52542;SDS011;38449;52.696;6.186;2023-02-01T06:44:41;16.92;;;4.13;;
52542;SDS011;38449;52.696;6.186;2023-02-01T06:47:07;18.30;;;4.38;;
52542;SDS011;38449;52.696;6.186;2023-02-01T06:49:33;18.55;;;4.05;;
52542;SDS011;38449;52.696;6.186;2023-02-01T06:51:58;18.48;;;4.47;;
52542;SDS011;38449;52.696;6.186;2023-02-01T06:54:27;17.65;;;4.38;;
52542;SDS011;38449;52.696;6.186;2023-02-01T06:56:53;26.60;;;5.45;;
52542;SDS011;38449;52.696;6.186;2023-02-01T06:59:18;22.75;;;4.57;;
52542;SDS011;38449;52.696;6.186;2023-02-01T07:01:44;18.10;;;4.28;;
52542;SDS011;38449;52.696;6.186;2023-02-01T07:04:10;18.35;;;4.78;;
52542;SDS011;38449;52.696;6.186;2023-02-01T07:06:37;27.17;;;5.18;;
52542;SDS011;38449;52.696;6.186;2023-02-01T07:09:03;18.48;;;4.60;;
52542;SDS011;38449;52.696;6.186;2023-02-01T07:11:29;16.08;;;4.45;;
52542;SDS011;38449;52.696;6.186;2023-02-01T07:13:55;22.95;;;4.65;;
52542;SDS011;38449;52.696;6.186;2023-02-01T07:16:21;20.67;;;4.90;;
52542;SDS011;38449;52.696;6.186;2023-02-01T07:18:47;18.50;;;4.40;;
52542;SDS011;38449;52.696;6.186;2023-02-01T07:21:17;18.52;;;4.53;;
52542;SDS011;38449;52.696;6.186;2023-02-01T07:23:43;21.05;;;4.75;;
52542;SDS011;38449;52.696;6.186;2023-02-01T07:26:09;17.95;;;4.22;;
52542;SDS011;38449;52.696;6.186;2023-02-01T07:28:37;16.88;;;3.97;;
52542;SDS011;38449;52.696;6.186;2023-02-01T07:31:10;17.70;;;4.75;;
52542;SDS011;38449;52.696;6.186;2023-02-01T07:33:44;20.85;;;4.70;;
52542;SDS011;38449;52.696;6.186;2023-02-01T07:36:11;26.00;;;4.93;;
52542;SDS011;38449;52.696;6.186;2023-02-01T07:38:38;19.13;;;4.90;;
52542;SDS011;38449;52.696;6.186;2023-02-01T07:41:04;21.13;;;4.88;;
52542;SDS011;38449;52.696;6.186;2023-02-01T07:43:31;23.27;;;5.35;;
52542;SDS011;38449;52.696;6.186;2023-02-01T07:45:58;22.05;;;5.00;;
52542;SDS011;38449;52.696;6.186;2023-02-01T07:48:25;20.27;;;5.20;;
52542;SDS011;38449;52.696;6.186;2023-02-01T07:50:58;20.45;;;4.90;;
52542;SDS011;38449;52.696;6.186;2023-02-01T07:53:25;21.40;;;5.35;;
52542;SDS011;38449;52.696;6.186;2023-02-01T07:55:51;27.42;;;7.30;;
52542;SDS011;38449;52.696;6.186;2023-02-01T07:58:17;17.52;;;4.63;;
52542;SDS011;38449;52.696;6.186;2023-02-01T08:00:42;39.38;;;7.30;;
52542;SDS011;38449;52.696;6.186;2023-02-01T08:03:27;52.67;;;13.15;;
52542;SDS011;38449;52.696;6.186;2023-02-01T08:05:55;45.70;;;11.50;;
52542;SDS011;38449;52.696;6.186;2023-02-01T08:08:21;29.05;;;7.65;;
52542;SDS011;38449;52.696;6.186;2023-02-01T08:10:47;30.90;;;7.68;;
52542;SDS011;38449;52.696;6.186;2023-02-01T08:13:12;35.92;;;8.95;;
52542;SDS011;38449;52.696;6.186;2023-02-01T08:15:38;31.55;;;6.72;;
52542;SDS011;38449;52.696;6.186;2023-02-01T08:18:04;26.55;;;5.90;;
52542;SDS011;38449;52.696;6.186;2023-02-01T08:20:29;26.98;;;8.60;;
52542;SDS011;38449;52.696;6.186;2023-02-01T08:22:55;19.73;;;4.95;;
52542;SDS011;38449;52.696;6.186;2023-02-01T08:25:21;22.42;;;5.60;;
52542;SDS011;38449;52.696;6.186;2023-02-01T08:27:49;19.90;;;4.90;;
52542;SDS011;38449;52.696;6.186;2023-02-01T08:30:15;19.95;;;5.22;;
52542;SDS011;38449;52.696;6.186;2023-02-01T08:32:41;24.88;;;5.38;;
52542;SDS011;38449;52.696;6.186;2023-02-01T08:35:06;21.95;;;4.32;;
52542;SDS011;38449;52.696;6.186;2023-02-01T08:37:33;22.02;;;6.03;;
52542;SDS011;38449;52.696;6.186;2023-02-01T08:39:59;26.65;;;6.25;;
52542;SDS011;38449;52.696;6.186;2023-02-01T08:42:24;21.23;;;5.28;;
52542;SDS011;38449;52.696;6.186;2023-02-01T08:45:08;19.70;;;4.60;;
52542;SDS011;38449;52.696;6.186;2023-02-01T08:47:34;27.13;;;6.80;;
52542;SDS011;38449;52.696;6.186;2023-02-01T08:50:00;24.15;;;5.47;;
52542;SDS011;38449;52.696;6.186;2023-02-01T08:52:26;28.88;;;6.18;;
52542;SDS011;38449;52.696;6.186;2023-02-01T08:54:51;28.85;;;5.90;;
52542;SDS011;38449;52.696;6.186;2023-02-01T08:57:17;28.25;;;5.53;;
52542;SDS011;38449;52.696;6.186;2023-02-01T08:59:44;28.05;;;6.05;;
52542;SDS011;38449;52.696;6.186;2023-02-01T09:02:16;24.83;;;4.30;;
52542;SDS011;38449;52.696;6.186;2023-02-01T09:04:42;31.38;;;5.70;;
52542;SDS011;38449;52.696;6.186;2023-02-01T09:07:08;21.45;;;6.15;;
52542;SDS011;38449;52.696;6.186;2023-02-01T09:09:35;25.67;;;7.40;;
52542;SDS011;38449;52.696;6.186;2023-02-01T09:12:01;20.38;;;6.30;;
52542;SDS011;38449;52.696;6.186;2023-02-01T09:14:28;23.15;;;7.18;;
52542;SDS011;38449;52.696;6.186;2023-02-01T09:16:55;26.33;;;7.25;;
52542;SDS011;38449;52.696;6.186;2023-02-01T09:19:20;27.30;;;8.63;;
52542;SDS011;38449;52.696;6.186;2023-02-01T09:21:46;26.20;;;7.40;;
52542;SDS011;38449;52.696;6.186;2023-02-01T09:24:13;26.77;;;7.45;;
52542;SDS011;38449;52.696;6.186;2023-02-01T09:26:38;30.52;;;7.45;;
52542;SDS011;38449;52.696;6.186;2023-02-01T09:29:05;23.90;;;8.20;;
52542;SDS011;38449;52.696;6.186;2023-02-01T09:31:37;25.00;;;7.80;;
52542;SDS011;38449;52.696;6.186;2023-02-01T09:34:03;31.00;;;7.35;;
52542;SDS011;38449;52.696;6.186;2023-02-01T09:36:29;27.45;;;5.85;;
52542;SDS011;38449;52.696;6.186;2023-02-01T09:38:55;27.42;;;6.78;;
52542;SDS011;38449;52.696;6.186;2023-02-01T09:47:09;24.92;;;6.18;;
52542;SDS011;38449;52.696;6.186;2023-02-01T09:49:51;28.73;;;6.40;;
52542;SDS011;38449;52.696;6.186;2023-02-01T09:52:23;32.47;;;6.88;;
52542;SDS011;38449;52.696;6.186;2023-02-01T09:54:55;25.15;;;6.35;;
52542;SDS011;38449;52.696;6.186;2023-02-01T09:57:36;29.58;;;8.20;;
52542;SDS011;38449;52.696;6.186;2023-02-01T10:00:17;37.42;;;8.60;;
52542;SDS011;38449;52.696;6.186;2023-02-01T10:02:48;36.97;;;8.88;;
52542;SDS011;38449;52.696;6.186;2023-02-01T10:05:16;32.03;;;8.75;;
52542;SDS011;38449;52.696;6.186;2023-02-01T10:08:04;31.40;;;7.30;;
52542;SDS011;38449;52.696;6.186;2023-02-01T10:10:48;28.42;;;8.15;;
52542;SDS011;38449;52.696;6.186;2023-02-01T10:26:42;23.10;;;7.10;;
52542;SDS011;38449;52.696;6.186;2023-02-01T10:29:16;21.95;;;6.07;;
52542;SDS011;38449;52.696;6.186;2023-02-01T10:31:44;25.15;;;6.78;;
52542;SDS011;38449;52.696;6.186;2023-02-01T10:34:21;18.95;;;4.63;;
52542;SDS011;38449;52.696;6.186;2023-02-01T10:39:19;20.48;;;4.80;;
52542;SDS011;38449;52.696;6.186;2023-02-01T10:41:45;20.98;;;5.00;;
52542;SDS011;38449;52.696;6.186;2023-02-01T10:44:16;18.85;;;5.05;;
52542;SDS011;38449;52.696;6.186;2023-02-01T10:46:44;23.83;;;4.97;;
52542;SDS011;38449;52.696;6.186;2023-02-01T10:49:52;22.63;;;5.97;;
52542;SDS011;38449;52.696;6.186;2023-02-01T10:52:14;24.83;;;5.82;;
52542;SDS011;38449;52.696;6.186;2023-02-01T10:54:43;19.38;;;4.90;;
52542;SDS011;38449;52.696;6.186;2023-02-01T10:57:10;25.75;;;5.03;;
52542;SDS011;38449;52.696;6.186;2023-02-01T10:59:44;17.67;;;4.47;;
52542;SDS011;38449;52.696;6.186;2023-02-01T11:02:30;25.05;;;6.45;;
52542;SDS011;38449;52.696;6.186;2023-02-01T11:04:58;20.13;;;5.40;;
52542;SDS011;38449;52.696;6.186;2023-02-01T11:07:27;24.25;;;5.38;;
52542;SDS011;38449;52.696;6.186;2023-02-01T11:09:54;19.27;;;5.80;;
52542;SDS011;38449;52.696;6.186;2023-02-01T11:12:32;25.25;;;6.80;;
52542;SDS011;38449;52.696;6.186;2023-02-01T11:15:01;26.83;;;8.05;;
52542;SDS011;38449;52.696;6.186;2023-02-01T11:17:45;36.83;;;10.40;;
52542;SDS011;38449;52.696;6.186;2023-02-01T11:22:55;35.30;;;8.95;;
52542;SDS011;38449;52.696;6.186;2023-02-01T11:25:21;37.92;;;10.10;;
52542;SDS011;38449;52.696;6.186;2023-02-01T11:27:49;38.30;;;9.10;;
52542;SDS011;38449;52.696;6.186;2023-02-01T11:30:19;31.17;;;7.22;;
52542;SDS011;38449;52.696;6.186;2023-02-01T11:32:56;32.45;;;7.15;;
52542;SDS011;38449;52.696;6.186;2023-02-01T11:35:22;29.05;;;7.40;;
52542;SDS011;38449;52.696;6.186;2023-02-01T11:37:55;41.70;;;8.05;;
52542;SDS011;38449;52.696;6.186;2023-02-01T11:40:28;22.02;;;5.75;;
52542;SDS011;38449;52.696;6.186;2023-02-01T11:43:12;28.38;;;6.22;;
52542;SDS011;38449;52.696;6.186;2023-02-01T11:45:43;33.35;;;8.27;;
52542;SDS011;38449;52.696;6.186;2023-02-01T11:48:27;32.65;;;6.47;;
52542;SDS011;38449;52.696;6.186;2023-02-01T12:02:33;27.80;;;5.78;;
52542;SDS011;38449;52.696;6.186;2023-02-01T12:05:24;18.42;;;4.57;;
52542;SDS011;38449;52.696;6.186;2023-02-01T12:10:57;24.63;;;5.10;;
52542;SDS011;38449;52.696;6.186;2023-02-01T12:14:01;20.77;;;4.93;;
52542;SDS011;38449;52.696;6.186;2023-02-01T12:17:08;24.52;;;5.07;;
52542;SDS011;38449;52.696;6.186;2023-02-01T12:40:00;18.52;;;4.38;;
52542;SDS011;38449;52.696;6.186;2023-02-01T12:45:40;28.17;;;5.22;;
52542;SDS011;38449;52.696;6.186;2023-02-01T12:48:21;22.27;;;5.25;;
52542;SDS011;38449;52.696;6.186;2023-02-01T12:50:57;19.45;;;5.05;;
52542;SDS011;38449;52.696;6.186;2023-02-01T12:56:09;20.77;;;4.75;;
52542;SDS011;38449;52.696;6.186;2023-02-01T12:58:40;24.27;;;5.63;;
52542;SDS011;38449;52.696;6.186;2023-02-01T13:01:12;23.25;;;5.20;;
52542;SDS011;38449;52.696;6.186;2023-02-01T13:03:57;20.60;;;4.80;;
52542;SDS011;38449;52.696;6.186;2023-02-01T13:11:47;22.92;;;4.72;;
52542;SDS011;38449;52.696;6.186;2023-02-01T13:19:46;24.95;;;5.82;;
52542;SDS011;38449;52.696;6.186;2023-02-01T13:22:43;27.00;;;5.57;;
52542;SDS011;38449;52.696;6.186;2023-02-01T13:25:13;26.45;;;6.00;;
52542;SDS011;38449;52.696;6.186;2023-02-01T13:28:14;22.52;;;5.28;;
52542;SDS011;38449;52.696;6.186;2023-02-01T13:30:50;24.40;;;5.28;;
52542;SDS011;38449;52.696;6.186;2023-02-01T13:33:42;21.42;;;4.43;;
52542;SDS011;38449;52.696;6.186;2023-02-01T13:41:59;22.15;;;5.05;;
52542;SDS011;38449;52.696;6.186;2023-02-01T13:44:29;27.48;;;5.05;;
52542;SDS011;38449;52.696;6.186;2023-02-01T13:47:00;25.60;;;4.97;;
52542;SDS011;38449;52.696;6.186;2023-02-01T13:49:30;23.58;;;4.68;;
52542;SDS011;38449;52.696;6.186;2023-02-01T13:52:01;22.55;;;5.78;;
52542;SDS011;38449;52.696;6.186;2023-02-01T13:54:36;25.85;;;5.47;;
52542;SDS011;38449;52.696;6.186;2023-02-01T13:57:04;25.05;;;5.43;;
52542;SDS011;38449;52.696;6.186;2023-02-01T14:05:12;23.17;;;5.85;;
52542;SDS011;38449;52.696;6.186;2023-02-01T14:08:10;14.38;;;4.25;;
52542;SDS011;38449;52.696;6.186;2023-02-01T14:29:01;26.40;;;5.35;;
52542;SDS011;38449;52.696;6.186;2023-02-01T14:36:56;22.27;;;5.38;;
52542;SDS011;38449;52.696;6.186;2023-02-01T14:39:31;21.15;;;4.40;;
52542;SDS011;38449;52.696;6.186;2023-02-01T14:44:51;23.85;;;5.30;;
52542;SDS011;38449;52.696;6.186;2023-02-01T14:55:35;22.58;;;5.40;;
52542;SDS011;38449;52.696;6.186;2023-02-01T14:58:04;24.27;;;5.65;;
52542;SDS011;38449;52.696;6.186;2023-02-01T15:00:35;19.50;;;5.28;;
52542;SDS011;38449;52.696;6.186;2023-02-01T15:03:25;21.83;;;5.03;;
52542;SDS011;38449;52.696;6.186;2023-02-01T15:05:58;22.83;;;4.50;;
52542;SDS011;38449;52.696;6.186;2023-02-01T15:08:30;22.00;;;5.35;;
52542;SDS011;38449;52.696;6.186;2023-02-01T15:10:59;21.27;;;5.35;;
52542;SDS011;38449;52.696;6.186;2023-02-01T15:13:27;25.80;;;5.15;;
52542;SDS011;38449;52.696;6.186;2023-02-01T15:16:00;26.33;;;5.45;;
52542;SDS011;38449;52.696;6.186;2023-02-01T15:18:28;22.33;;;4.43;;
52542;SDS011;38449;52.696;6.186;2023-02-01T15:20:57;24.23;;;5.43;;
52542;SDS011;38449;52.696;6.186;2023-02-01T15:23:24;20.05;;;4.80;;
52542;SDS011;38449;52.696;6.186;2023-02-01T15:25:51;19.55;;;4.60;;
52542;SDS011;38449;52.696;6.186;2023-02-01T15:28:17;19.48;;;4.97;;
52542;SDS011;38449;52.696;6.186;2023-02-01T15:30:56;25.00;;;4.53;;
52542;SDS011;38449;52.696;6.186;2023-02-01T15:33:27;21.20;;;4.95;;
52542;SDS011;38449;52.696;6.186;2023-02-01T15:41:06;18.48;;;4.45;;
52542;SDS011;38449;52.696;6.186;2023-02-01T15:43:34;18.75;;;4.20;;
52542;SDS011;38449;52.696;6.186;2023-02-01T15:46:20;18.27;;;4.07;;
52542;SDS011;38449;52.696;6.186;2023-02-01T15:48:48;21.02;;;4.35;;
52542;SDS011;38449;52.696;6.186;2023-02-01T15:51:18;14.88;;;4.28;;
52542;SDS011;38449;52.696;6.186;2023-02-01T15:53:53;21.88;;;5.35;;
52542;SDS011;38449;52.696;6.186;2023-02-01T15:56:28;19.90;;;4.35;;
52542;SDS011;38449;52.696;6.186;2023-02-01T15:59:00;21.52;;;4.40;;
52542;SDS011;38449;52.696;6.186;2023-02-01T16:01:28;24.02;;;4.97;;
52542;SDS011;38449;52.696;6.186;2023-02-01T16:04:28;20.60;;;4.40;;
52542;SDS011;38449;52.696;6.186;2023-02-01T16:06:54;22.88;;;6.13;;
52542;SDS011;38449;52.696;6.186;2023-02-01T16:10:13;30.40;;;7.57;;
52542;SDS011;38449;52.696;6.186;2023-02-01T16:15:09;27.70;;;8.52;;
52542;SDS011;38449;52.696;6.186;2023-02-01T16:17:34;21.13;;;7.50;;
52542;SDS011;38449;52.696;6.186;2023-02-01T16:20:01;24.25;;;5.00;;
52542;SDS011;38449;52.696;6.186;2023-02-01T16:22:27;18.25;;;4.60;;
52542;SDS011;38449;52.696;6.186;2023-02-01T16:24:54;20.80;;;5.00;;
52542;SDS011;38449;52.696;6.186;2023-02-01T16:27:20;23.15;;;5.25;;
52542;SDS011;38449;52.696;6.186;2023-02-01T16:29:47;21.35;;;4.70;;
52542;SDS011;38449;52.696;6.186;2023-02-01T16:32:15;28.05;;;4.78;;
52542;SDS011;38449;52.696;6.186;2023-02-01T16:34:44;22.27;;;4.65;;
52542;SDS011;38449;52.696;6.186;2023-02-01T16:37:16;21.45;;;5.45;;
52542;SDS011;38449;52.696;6.186;2023-02-01T16:42:11;27.17;;;5.35;;
52542;SDS011;38449;52.696;6.186;2023-02-01T16:44:38;24.48;;;4.75;;
52542;SDS011;38449;52.696;6.186;2023-02-01T16:47:08;27.75;;;5.72;;
52542;SDS011;38449;52.696;6.186;2023-02-01T16:49:40;22.30;;;5.03;;
52542;SDS011;38449;52.696;6.186;2023-02-01T16:52:08;19.85;;;4.45;;
52542;SDS011;38449;52.696;6.186;2023-02-01T16:54:49;23.25;;;5.18;;
52542;SDS011;38449;52.696;6.186;2023-02-01T16:57:17;24.10;;;5.28;;
52542;SDS011;38449;52.696;6.186;2023-02-01T16:59:44;24.65;;;5.38;;
52542;SDS011;38449;52.696;6.186;2023-02-01T17:02:14;28.42;;;5.53;;
52542;SDS011;38449;52.696;6.186;2023-02-01T17:04:42;27.80;;;6.93;;
52542;SDS011;38449;52.696;6.186;2023-02-01T17:07:14;32.20;;;8.23;;
52542;SDS011;38449;52.696;6.186;2023-02-01T17:09:41;29.00;;;5.65;;
52542;SDS011;38449;52.696;6.186;2023-02-01T17:12:29;21.85;;;5.10;;
52542;SDS011;38449;52.696;6.186;2023-02-01T17:14:55;19.80;;;5.30;;
52542;SDS011;38449;52.696;6.186;2023-02-01T17:17:22;20.75;;;4.63;;
52542;SDS011;38449;52.696;6.186;2023-02-01T17:19:50;19.23;;;5.10;;
52542;SDS011;38449;52.696;6.186;2023-02-01T17:22:18;20.13;;;4.32;;
52542;SDS011;38449;52.696;6.186;2023-02-01T17:24:44;18.73;;;5.00;;
52542;SDS011;38449;52.696;6.186;2023-02-01T17:27:10;18.52;;;3.97;;
52542;SDS011;38449;52.696;6.186;2023-02-01T17:29:36;14.20;;;4.38;;
52542;SDS011;38449;52.696;6.186;2023-02-01T17:32:01;18.77;;;4.28;;